Time;durP1;ratioP1;P1;durP2;ratioP2;P2;SDS_P1;SDS_P2;PMS_P1;PMS_P2;Temp;Humidity;BMP_temperature;BMP_pressure;BME280_temperature;BME280_humidity;BME280_pressure;Samples;Min_cycle;Max_cycle;Signal;HPM_P1;HPM_P2
2022/07/17 00:01:12;;;;;;;;;4.50;4.50;;;;;-146.44;100.00;58906.56;5075751;28;45375;-66
2022/07/17 00:03:37;;;;;;;;;5.50;5.00;;;;;-146.44;100.00;58906.56;5075502;27;46383;-66
2022/07/17 00:06:03;;;;;;;;;6.00;4.75;;;;;-146.44;100.00;58906.56;5075577;27;45378;-66
2022/07/17 00:08:30;;;;;;;;;5.75;5.75;;;;;-146.44;100.00;58906.56;5075918;27;45537;-66
2022/07/17 00:10:56;;;;;;;;;5.00;5.00;;;;;-146.44;100.00;58906.56;5075415;28;45647;-67
2022/07/17 00:13:21;;;;;;;;;4.00;4.00;;;;;-146.44;100.00;58906.56;5075578;27;46135;-66
2022/07/17 00:15:47;;;;;;;;;4.00;4.00;;;;;-146.44;100.00;58906.56;5075227;27;45478;-66
2022/07/17 00:18:12;;;;;;;;;6.00;6.00;;;;;-146.44;100.00;58906.56;5075228;27;46037;-66
2022/07/17 00:20:38;;;;;;;;;4.00;4.00;;;;;-146.44;100.00;58906.56;5075389;27;45496;-66
2022/07/17 00:23:03;;;;;;;;;5.00;5.00;;;;;-146.44;100.00;58906.56;5075151;28;45425;-66
2022/07/17 00:25:29;;;;;;;;;3.75;3.75;;;;;-146.44;100.00;58906.56;5075116;27;45461;-66
2022/07/17 00:27:54;;;;;;;;;4.00;4.00;;;;;-146.44;100.00;58906.56;5075369;27;45348;-66
2022/07/17 00:30:19;;;;;;;;;4.00;4.00;;;;;-146.44;100.00;58906.56;5075464;27;45600;-66
2022/07/17 00:32:45;;;;;;;;;3.50;3.25;;;;;-146.44;100.00;58906.56;5090636;27;46207;-66
2022/07/17 00:35:12;;;;;;;;;4.00;4.00;;;;;-146.44;100.00;58906.56;5075356;27;45462;-66
2022/07/17 00:37:39;;;;;;;;;4.00;4.00;;;;;-146.44;100.00;58906.56;5075257;27;45390;-66
2022/07/17 00:40:05;;;;;;;;;3.75;3.75;;;;;-146.44;100.00;58906.56;5075260;27;45509;-66
2022/07/17 00:42:30;;;;;;;;;4.00;4.00;;;;;-146.44;100.00;58906.56;5075060;27;45417;-66
2022/07/17 00:44:56;;;;;;;;;3.25;3.25;;;;;-146.44;100.00;58906.56;5074153;27;56843;-67
2022/07/17 00:47:22;;;;;;;;;5.00;5.00;;;;;-146.44;100.00;58906.56;5075366;27;45496;-66
2022/07/17 00:49:47;;;;;;;;;5.00;3.75;;;;;-146.44;100.00;58906.56;5075012;27;45398;-66
2022/07/17 00:52:15;;;;;;;;;7.00;4.25;;;;;-146.44;100.00;58906.56;5074840;27;46130;-66
2022/07/17 00:54:43;;;;;;;;;4.50;4.00;;;;;-146.44;100.00;58906.56;5074915;27;45449;-66
2022/07/17 00:57:13;;;;;;;;;3.00;3.00;;;;;-146.44;100.00;58906.56;5075156;27;45363;-66
2022/07/17 00:59:39;;;;;;;;;4.00;4.00;;;;;-146.44;100.00;58906.56;5076314;27;45528;-66
2022/07/17 01:02:07;;;;;;;;;3.75;3.75;;;;;-146.44;100.00;58906.56;5078248;27;45399;-66
2022/07/17 01:04:34;;;;;;;;;3.00;3.00;;;;;-146.44;100.00;58906.56;5078379;27;45421;-66
2022/07/17 01:07:02;;;;;;;;;3.75;3.75;;;;;-146.44;100.00;58906.56;5078476;27;45442;-66
2022/07/17 01:09:28;;;;;;;;;4.00;4.00;;;;;-146.44;100.00;58906.56;5078201;28;45473;-66
2022/07/17 01:11:54;;;;;;;;;3.00;3.00;;;;;-146.44;100.00;58906.56;5078239;28;45531;-66
2022/07/17 01:14:21;;;;;;;;;3.25;3.25;;;;;-146.44;100.00;58906.56;5078012;27;45446;-66
2022/07/17 01:16:47;;;;;;;;;4.00;4.00;;;;;-146.44;100.00;58906.56;5078321;27;45388;-66
2022/07/17 01:19:12;;;;;;;;;3.75;2.75;;;;;-146.44;100.00;58906.56;5078297;28;45383;-66
2022/07/17 01:21:44;;;;;;;;;3.75;3.75;;;;;-146.44;100.00;58906.56;5078116;27;46216;-66
2022/07/17 01:24:09;;;;;;;;;3.25;3.25;;;;;-146.44;100.00;58906.56;5078107;27;45438;-66
2022/07/17 01:26:35;;;;;;;;;3.00;3.00;;;;;-146.44;100.00;58906.56;5078186;27;45473;-66
2022/07/17 01:29:00;;;;;;;;;3.00;3.00;;;;;-146.44;100.00;58906.56;5078014;27;45695;-66
2022/07/17 01:31:26;;;;;;;;;4.50;4.50;;;;;-146.44;100.00;58906.56;5076137;28;51296;-66
2022/07/17 01:33:51;;;;;;;;;5.75;4.00;;;;;-146.44;100.00;58906.56;5077805;27;45364;-66
2022/07/17 01:36:24;;;;;;;;;5.00;4.00;;;;;-146.44;100.00;58906.56;5078046;28;45457;-66
2022/07/17 01:38:51;;;;;;;;;6.00;6.00;;;;;-146.44;100.00;58906.56;5077929;27;45593;-66
2022/07/17 01:41:17;;;;;;;;;4.50;4.50;;;;;-146.44;100.00;58906.56;5077701;28;45477;-66
2022/07/17 01:43:42;;;;;;;;;3.50;3.50;;;;;-146.44;100.00;58906.56;5077522;28;45408;-67
2022/07/17 01:46:07;;;;;;;;;6.75;4.00;;;;;-146.44;100.00;58906.56;5077744;27;45413;-66
2022/07/17 01:48:33;;;;;;;;;5.50;5.50;;;;;-146.44;100.00;58906.56;5077711;27;45547;-66
2022/07/17 01:50:58;;;;;;;;;3.00;3.00;;;;;-146.44;100.00;58906.56;5077218;27;46439;-66
2022/07/17 01:53:24;;;;;;;;;3.00;3.00;;;;;-146.44;100.00;58906.56;5077470;27;45485;-66
2022/07/17 01:55:49;;;;;;;;;4.00;3.50;;;;;-146.44;100.00;58906.56;5077722;27;45548;-66
2022/07/17 01:58:15;;;;;;;;;4.00;4.00;;;;;-146.44;100.00;58906.56;5077426;27;45578;-66
2022/07/17 02:00:41;;;;;;;;;4.25;4.00;;;;;-146.44;100.00;58906.56;5077234;28;46346;-66
2022/07/17 02:03:06;;;;;;;;;3.75;3.75;;;;;-146.44;100.00;58906.56;5077378;27;45499;-66
2022/07/17 02:05:32;;;;;;;;;4.00;4.00;;;;;-146.44;100.00;58906.56;5077391;27;45431;-66
2022/07/17 02:07:57;;;;;;;;;4.50;2.50;;;;;-146.44;100.00;58906.56;5077311;28;45542;-67
2022/07/17 02:10:24;;;;;;;;;3.25;3.25;;;;;-146.44;100.00;58906.56;5077032;27;45973;-67
2022/07/17 02:12:49;;;;;;;;;3.00;3.00;;;;;-146.44;100.00;58906.56;5077151;27;45433;-66
2022/07/17 02:15:14;;;;;;;;;5.00;4.00;;;;;-146.44;100.00;58906.56;5075888;28;45468;-67
2022/07/17 02:17:42;;;;;;;;;4.00;4.00;;;;;-146.44;100.00;58906.56;5077183;27;45349;-67
2022/07/17 02:20:08;;;;;;;;;4.00;4.00;;;;;-146.44;100.00;58906.56;5076855;27;46120;-66
2022/07/17 02:22:33;;;;;;;;;5.00;5.00;;;;;-146.44;100.00;58906.56;5077092;27;45337;-66
2022/07/17 02:24:59;;;;;;;;;4.25;4.25;;;;;-146.44;100.00;58906.56;5075862;28;45450;-67
2022/07/17 02:27:24;;;;;;;;;4.25;4.25;;;;;-146.44;100.00;58906.56;5076976;27;45402;-67
2022/07/17 02:29:49;;;;;;;;;4.00;4.00;;;;;-146.44;100.00;58906.56;5076990;27;46111;-67
2022/07/17 02:32:15;;;;;;;;;4.00;4.00;;;;;-146.44;100.00;58906.56;5076899;27;45418;-67
2022/07/17 02:34:40;;;;;;;;;5.00;5.00;;;;;-146.44;100.00;58906.56;5076954;28;45387;-67
2022/07/17 02:37:06;;;;;;;;;5.50;5.50;;;;;-146.44;100.00;58906.56;5076939;27;45574;-66
2022/07/17 02:39:31;;;;;;;;;4.00;4.00;;;;;-146.44;100.00;58906.56;5076871;27;45484;-67
2022/07/17 02:41:57;;;;;;;;;3.25;3.25;;;;;-146.44;100.00;58906.56;5076768;27;45434;-67
2022/07/17 02:44:22;;;;;;;;;3.50;3.50;;;;;-146.44;100.00;58906.56;5075762;28;45415;-66
2022/07/17 02:46:48;;;;;;;;;5.00;5.00;;;;;-146.44;100.00;58906.56;5092224;27;45390;-67
2022/07/17 02:49:13;;;;;;;;;3.50;3.50;;;;;-146.44;100.00;58906.56;5076301;27;46307;-68
2022/07/17 02:51:39;;;;;;;;;3.50;3.25;;;;;-146.44;100.00;58906.56;5076384;27;45562;-67
2022/07/17 02:54:04;;;;;;;;;4.50;4.50;;;;;-146.44;100.00;58906.56;5076635;27;45372;-67
2022/07/17 02:56:29;;;;;;;;;4.50;3.75;;;;;-146.44;100.00;58906.56;5076566;27;45350;-67
2022/07/17 02:58:55;;;;;;;;;4.25;4.00;;;;;-146.44;100.00;58906.56;5076425;27;45932;-67
2022/07/17 03:01:20;;;;;;;;;3.00;3.00;;;;;-146.44;100.00;58906.56;5076205;27;47477;-67
2022/07/17 03:03:46;;;;;;;;;4.50;4.50;;;;;-146.44;100.00;58906.56;5076234;27;45854;-67
2022/07/17 03:06:11;;;;;;;;;2.00;2.00;;;;;-146.44;100.00;58906.56;5076378;27;45575;-67
2022/07/17 03:08:36;;;;;;;;;4.25;3.25;;;;;-146.44;100.00;58906.56;5076186;27;45903;-67
2022/07/17 03:11:02;;;;;;;;;3.00;3.00;;;;;-146.44;100.00;58906.56;5076265;27;45379;-67
2022/07/17 03:13:27;;;;;;;;;3.00;3.00;;;;;-146.44;100.00;58906.56;5076301;27;45368;-66
2022/07/17 03:15:52;;;;;;;;;2.75;2.75;;;;;-146.44;100.00;58906.56;5076195;27;45433;-67
2022/07/17 03:18:18;;;;;;;;;6.25;4.75;;;;;-146.44;100.00;58906.56;5074658;28;45450;-67
2022/07/17 03:20:43;;;;;;;;;4.00;4.00;;;;;-146.44;100.00;58906.56;5076074;27;45486;-66
2022/07/17 03:23:08;;;;;;;;;3.00;3.00;;;;;-146.44;100.00;58906.56;5075267;27;45882;-67
2022/07/17 03:25:34;;;;;;;;;3.25;3.25;;;;;-146.44;100.00;58906.56;5076113;27;45377;-67
2022/07/17 03:27:59;;;;;;;;;4.00;3.00;;;;;-146.44;100.00;58906.56;5076155;27;45690;-67
2022/07/17 03:30:24;;;;;;;;;2.25;2.25;;;;;-146.44;100.00;58906.56;5074371;28;45508;-67
2022/07/17 03:32:50;;;;;;;;;3.75;3.75;;;;;-146.44;100.00;58906.56;5076261;27;45472;-67
2022/07/17 03:35:16;;;;;;;;;4.00;4.00;;;;;-146.44;100.00;58906.56;5076216;27;45675;-67
2022/07/17 03:37:43;;;;;;;;;4.00;4.00;;;;;-146.44;100.00;58906.56;5075859;27;45512;-67
2022/07/17 03:40:10;;;;;;;;;3.25;3.00;;;;;-146.44;100.00;58906.56;5075967;28;45423;-67
2022/07/17 03:42:35;;;;;;;;;2.75;2.75;;;;;-146.44;100.00;58906.56;5076116;28;45323;-67
2022/07/17 03:45:00;;;;;;;;;5.00;3.75;;;;;-146.44;100.00;58906.56;5075966;27;45353;-67
2022/07/17 03:47:26;;;;;;;;;5.25;5.00;;;;;-146.44;100.00;58906.56;5075864;27;45431;-67
2022/07/17 03:49:51;;;;;;;;;2.00;2.00;;;;;-146.44;100.00;58906.56;5076039;27;45353;-67
2022/07/17 03:52:16;;;;;;;;;3.75;3.75;;;;;-146.44;100.00;58906.56;5075887;27;45772;-67
2022/07/17 03:54:42;;;;;;;;;4.00;4.00;;;;;-146.44;100.00;58906.56;5076034;27;45584;-67
2022/07/17 03:57:07;;;;;;;;;5.00;3.25;;;;;-146.44;100.00;58906.56;5075604;27;45517;-67
2022/07/17 03:59:32;;;;;;;;;4.00;3.00;;;;;-146.44;100.00;58906.56;5075796;27;45421;-68
2022/07/17 04:01:58;;;;;;;;;2.50;2.50;;;;;-146.44;100.00;58906.56;5075763;27;45446;-67
2022/07/17 04:04:23;;;;;;;;;2.25;2.25;;;;;-146.44;100.00;58906.56;5075662;27;45507;-67
2022/07/17 04:06:48;;;;;;;;;3.00;3.00;;;;;-146.44;100.00;58906.56;5075494;27;46084;-67
2022/07/17 04:09:14;;;;;;;;;4.00;2.50;;;;;-146.44;100.00;58906.56;5075553;27;45378;-67
2022/07/17 04:11:39;;;;;;;;;2.50;2.50;;;;;-146.44;100.00;58906.56;5075663;27;45490;-68
2022/07/17 04:14:05;;;;;;;;;3.00;3.00;;;;;-146.44;100.00;58906.56;5075505;27;45508;-67
2022/07/17 04:16:30;;;;;;;;;3.25;3.25;;;;;-146.44;100.00;58906.56;5075321;27;45682;-67
2022/07/17 04:18:55;;;;;;;;;4.75;3.25;;;;;-146.44;100.00;58906.56;5075561;27;45466;-67
2022/07/17 04:21:21;;;;;;;;;4.25;3.00;;;;;-146.44;100.00;58906.56;5075441;27;45481;-67
2022/07/17 04:23:46;;;;;;;;;3.00;3.00;;;;;-146.44;100.00;58906.56;5075577;27;45626;-67
2022/07/17 04:26:11;;;;;;;;;3.50;3.50;;;;;-146.44;100.00;58906.56;5075345;27;46340;-67
2022/07/17 04:28:38;;;;;;;;;3.25;2.25;;;;;-146.44;100.00;58906.56;5075241;28;45397;-67
2022/07/17 04:31:03;;;;;;;;;5.00;3.75;;;;;-146.44;100.00;58906.56;5075401;27;45386;-67
2022/07/17 04:33:29;;;;;;;;;2.00;2.00;;;;;-146.44;100.00;58906.56;5076427;27;45573;-67
2022/07/17 04:35:55;;;;;;;;;5.00;4.00;;;;;-146.44;100.00;58906.56;5077536;28;45591;-67
2022/07/17 04:38:20;;;;;;;;;4.00;4.00;;;;;-146.44;100.00;58906.56;5078759;27;45414;-67
2022/07/17 04:40:48;;;;;;;;;3.00;3.00;;;;;-146.44;100.00;58906.56;5078881;27;45458;-68
2022/07/17 04:43:13;;;;;;;;;5.00;5.00;;;;;-146.44;100.00;58906.56;5078716;27;45488;-67
2022/07/17 04:45:39;;;;;;;;;3.25;3.25;;;;;-146.44;100.00;58906.56;5078057;27;45417;-67
2022/07/17 04:48:05;;;;;;;;;3.75;3.75;;;;;-146.44;100.00;58906.56;5078629;27;45549;-67
2022/07/17 04:50:30;;;;;;;;;3.50;3.25;;;;;-146.44;100.00;58906.56;5078675;27;45474;-67
2022/07/17 04:52:56;;;;;;;;;3.00;3.00;;;;;-146.44;100.00;58906.56;5078704;27;45482;-68
2022/07/17 04:55:22;;;;;;;;;3.50;3.25;;;;;-146.44;100.00;58906.56;5078437;28;46203;-67
2022/07/17 04:57:48;;;;;;;;;3.25;3.25;;;;;-146.44;100.00;58906.56;5078508;27;45454;-67
2022/07/17 05:00:15;;;;;;;;;5.25;4.25;;;;;-146.44;100.00;58906.56;5078651;27;45375;-67
2022/07/17 05:02:40;;;;;;;;;4.00;4.00;;;;;-146.44;100.00;58906.56;5078388;27;45420;-67
2022/07/17 05:05:06;;;;;;;;;4.00;4.00;;;;;-146.44;100.00;58906.56;5078353;27;46077;-67
2022/07/17 05:07:31;;;;;;;;;4.25;4.25;;;;;-146.44;100.00;58906.56;5078209;27;45407;-67
2022/07/17 05:09:56;;;;;;;;;5.00;3.75;;;;;-146.44;100.00;58906.56;5078483;27;45397;-67
2022/07/17 05:12:22;;;;;;;;;2.75;2.75;;;;;-146.44;100.00;58906.56;5078150;27;45633;-68
2022/07/17 05:14:47;;;;;;;;;2.25;2.25;;;;;-146.44;100.00;58906.56;5077987;27;46110;-68
2022/07/17 05:17:13;;;;;;;;;3.50;3.50;;;;;-146.44;100.00;58906.56;5078179;27;45395;-67
2022/07/17 05:19:38;;;;;;;;;5.00;5.00;;;;;-146.44;100.00;58906.56;5078298;28;45444;-67
2022/07/17 05:22:04;;;;;;;;;8.25;7.00;;;;;-146.44;100.00;58906.56;5078219;27;45612;-67
2022/07/17 05:24:30;;;;;;;;;8.25;7.75;;;;;-146.44;100.00;58906.56;5078077;28;45504;-67
2022/07/17 05:26:55;;;;;;;;;10.00;8.75;;;;;-146.44;100.00;58906.56;5077769;28;45446;-68
2022/07/17 05:29:21;;;;;;;;;10.00;8.33;;;;;-146.44;100.00;58906.56;5077022;28;45463;-67
2022/07/17 05:31:47;;;;;;;;;10.50;9.00;;;;;-146.44;100.00;58906.56;5077985;27;45386;-67
2022/07/17 05:34:12;;;;;;;;;8.75;8.50;;;;;-146.44;100.00;58906.56;5077825;28;45502;-67
2022/07/17 05:36:37;;;;;;;;;10.25;10.00;;;;;-146.44;100.00;58906.56;5077962;28;45428;-67
2022/07/17 05:39:03;;;;;;;;;7.25;7.25;;;;;-146.44;100.00;58906.56;5077968;27;45368;-67
2022/07/17 05:41:28;;;;;;;;;9.25;9.25;;;;;-146.44;100.00;58906.56;5077844;28;45425;-68
2022/07/17 05:43:54;;;;;;;;;7.33;7.33;;;;;-146.44;100.00;58906.56;5077836;27;46101;-67
2022/07/17 05:46:19;;;;;;;;;8.00;8.00;;;;;-146.44;100.00;58906.56;5077379;27;45443;-68
2022/07/17 05:48:44;;;;;;;;;6.75;6.75;;;;;-146.44;100.00;58906.56;5078000;27;45439;-67
2022/07/17 05:51:10;;;;;;;;;8.00;7.75;;;;;-146.44;100.00;58906.56;5077808;27;45443;-68
2022/07/17 05:53:35;;;;;;;;;6.25;6.25;;;;;-146.44;100.00;58906.56;5077589;27;52058;-67
2022/07/17 05:56:00;;;;;;;;;10.00;8.75;;;;;-146.44;100.00;58906.56;5077617;27;45488;-67
2022/07/17 05:58:26;;;;;;;;;6.25;6.25;;;;;-146.44;100.00;58906.56;5078057;27;45724;-67
2022/07/17 06:00:51;;;;;;;;;3.25;3.00;;;;;-146.44;100.00;58906.56;5077896;27;45464;-67
2022/07/17 06:03:17;;;;;;;;;4.50;4.00;;;;;-146.44;100.00;58906.56;5077458;27;46134;-67
2022/07/17 06:05:43;;;;;;;;;5.50;4.75;;;;;-146.44;100.00;58906.56;5077513;27;45422;-67
2022/07/17 06:08:08;;;;;;;;;6.75;6.00;;;;;-146.44;100.00;58906.56;5077634;27;45559;-67
2022/07/17 06:10:34;;;;;;;;;4.50;4.50;;;;;-146.44;100.00;58906.56;5077618;27;45663;-67
2022/07/17 06:13:00;;;;;;;;;7.00;6.00;;;;;-146.44;100.00;58906.56;5077456;27;45511;-68
2022/07/17 06:15:26;;;;;;;;;5.50;5.50;;;;;-146.44;100.00;58906.56;5076996;27;45441;-67
2022/07/17 06:17:52;;;;;;;;;3.50;3.50;;;;;-146.44;100.00;58906.56;5077569;27;45457;-67
2022/07/17 06:20:18;;;;;;;;;4.75;4.75;;;;;-146.44;100.00;58906.56;5077415;27;45493;-67
2022/07/17 06:22:43;;;;;;;;;5.00;5.00;;;;;-146.44;100.00;58906.56;5077167;27;46702;-67
2022/07/17 06:25:10;;;;;;;;;5.25;3.50;;;;;-146.44;100.00;58906.56;5077345;27;45473;-67
2022/07/17 06:27:39;;;;;;;;;4.50;3.75;;;;;-146.44;100.00;58906.56;5075472;28;45406;-67
2022/07/17 06:30:06;;;;;;;;;7.00;7.00;;;;;-146.44;100.00;58906.56;5077077;28;45439;-67
2022/07/17 06:32:31;;;;;;;;;4.00;4.00;;;;;-146.44;100.00;58906.56;5076981;28;46243;-67
2022/07/17 06:34:57;;;;;;;;;4.00;4.00;;;;;-146.44;100.00;58906.56;5077079;27;45387;-67
2022/07/17 06:37:22;;;;;;;;;3.50;3.50;;;;;-146.44;100.00;58906.56;5077126;27;45385;-67
2022/07/17 06:39:47;;;;;;;;;5.00;5.00;;;;;-146.44;100.00;58906.56;5077303;27;45462;-67
2022/07/17 06:42:13;;;;;;;;;5.00;5.00;;;;;-146.44;100.00;58906.56;5077002;27;45630;-67
2022/07/17 06:44:38;;;;;;;;;6.00;6.00;;;;;-146.44;100.00;58906.56;5076707;27;45429;-67
2022/07/17 06:47:03;;;;;;;;;6.75;5.75;;;;;-146.44;100.00;58906.56;5077097;27;45421;-67
2022/07/17 06:49:29;;;;;;;;;7.75;6.25;;;;;-146.44;100.00;58906.56;5076751;27;45665;-67
2022/07/17 06:51:55;;;;;;;;;6.50;6.00;;;;;-146.44;100.00;58906.56;5076558;28;45378;-67
2022/07/17 06:54:23;;;;;;;;;5.25;5.25;;;;;-146.44;100.00;58906.56;5076766;27;45382;-67
2022/07/17 06:56:50;;;;;;;;;4.00;4.00;;;;;-146.44;100.00;58906.56;5075659;27;45487;-67
2022/07/17 06:59:15;;;;;;;;;5.00;5.00;;;;;-146.44;100.00;58906.56;5076875;27;45459;-67
2022/07/17 07:01:40;;;;;;;;;4.25;4.00;;;;;-146.44;100.00;58906.56;5075087;28;45643;-66
2022/07/17 07:04:06;;;;;;;;;5.00;5.00;;;;;-146.44;100.00;58906.56;5076514;27;45385;-67
2022/07/17 07:06:31;;;;;;;;;4.25;4.00;;;;;-146.44;100.00;58906.56;5076735;28;45458;-67
2022/07/17 07:08:57;;;;;;;;;4.00;4.00;;;;;-146.44;100.00;58906.56;5076775;27;45556;-66
2022/07/17 07:11:23;;;;;;;;;3.50;3.25;;;;;-146.44;100.00;58906.56;5076182;27;46114;-68
2022/07/17 07:13:49;;;;;;;;;4.00;4.00;;;;;-146.44;100.00;58906.56;5076293;27;45548;-67
2022/07/17 07:16:14;;;;;;;;;3.50;3.50;;;;;-146.44;100.00;58906.56;5076341;28;45436;-68
2022/07/17 07:18:39;;;;;;;;;3.50;3.50;;;;;-146.44;100.00;58906.56;5076564;27;45428;-67
2022/07/17 07:21:05;;;;;;;;;5.75;4.75;;;;;-146.44;100.00;58906.56;5076318;27;45397;-67
2022/07/17 07:23:30;;;;;;;;;6.00;4.00;;;;;-146.44;100.00;58906.56;5076193;27;45370;-67
2022/07/17 07:25:55;;;;;;;;;3.50;3.50;;;;;-146.44;100.00;58906.56;5076428;27;45468;-67
2022/07/17 07:28:21;;;;;;;;;3.75;3.75;;;;;-146.44;100.00;58906.56;5075058;28;45440;-67
2022/07/17 07:30:47;;;;;;;;;5.25;3.50;;;;;-146.44;100.00;58906.56;5075693;27;45454;-68
2022/07/17 07:33:12;;;;;;;;;5.25;5.25;;;;;-146.44;100.00;58906.56;5074879;28;45324;-68
2022/07/17 07:35:38;;;;;;;;;3.00;3.00;;;;;-146.44;100.00;58906.56;5076188;27;45311;-67
2022/07/17 07:38:03;;;;;;;;;4.75;4.75;;;;;-146.44;100.00;58906.56;5076117;27;45497;-68
2022/07/17 07:40:30;;;;;;;;;4.00;4.00;;;;;-146.44;100.00;58906.56;5076149;27;45373;-67
2022/07/17 07:42:56;;;;;;;;;3.50;3.25;;;;;-146.44;100.00;58906.56;5075947;27;45517;-67
2022/07/17 07:45:21;;;;;;;;;4.25;4.00;;;;;-146.44;100.00;58906.56;5076107;27;45520;-67
2022/07/17 07:47:50;;;;;;;;;4.00;4.00;;;;;-146.44;100.00;58906.56;5076044;27;45407;-67
2022/07/17 07:50:15;;;;;;;;;6.00;4.00;;;;;-146.44;100.00;58906.56;5075829;27;46160;-67
2022/07/17 07:52:42;;;;;;;;;3.75;3.75;;;;;-146.44;100.00;58906.56;5075668;27;45543;-68
2022/07/17 07:55:08;;;;;;;;;4.25;3.50;;;;;-146.44;100.00;58906.56;5076080;27;45362;-68
2022/07/17 07:57:33;;;;;;;;;5.00;5.00;;;;;-146.44;100.00;58906.56;5075759;27;45503;-67
2022/07/17 07:59:59;;;;;;;;;5.00;4.75;;;;;-146.44;100.00;58906.56;5075639;27;45490;-68
2022/07/17 08:02:24;;;;;;;;;4.50;4.50;;;;;-146.44;100.00;58906.56;5075689;27;45449;-68
2022/07/17 08:04:49;;;;;;;;;4.00;4.00;;;;;-146.44;100.00;58906.56;5075764;27;45637;-67
2022/07/17 08:07:15;;;;;;;;;4.00;4.00;;;;;-146.44;100.00;58906.56;5075766;27;45578;-68
2022/07/17 08:09:40;;;;;;;;;3.00;3.00;;;;;-146.44;100.00;58906.56;5074930;28;49633;-67
2022/07/17 08:12:05;;;;;;;;;4.00;4.00;;;;;-146.44;100.00;58906.56;5075417;27;46687;-67
2022/07/17 08:14:31;;;;;;;;;3.50;3.50;;;;;-146.44;100.00;58906.56;5075519;27;45450;-67
2022/07/17 08:16:56;;;;;;;;;4.00;4.00;;;;;-146.44;100.00;58906.56;5075754;27;45474;-68
2022/07/17 08:19:21;;;;;;;;;4.25;3.75;;;;;-146.44;100.00;58906.56;5075374;27;46294;-67
2022/07/17 08:21:47;;;;;;;;;5.00;5.00;;;;;-146.44;100.00;58906.56;5075362;27;45405;-68
2022/07/17 08:24:12;;;;;;;;;3.00;3.00;;;;;-146.44;100.00;58906.56;5075647;27;45390;-68
2022/07/17 08:26:38;;;;;;;;;4.00;4.00;;;;;-146.44;100.00;58906.56;5075357;27;45450;-67
2022/07/17 08:29:03;;;;;;;;;5.75;5.00;;;;;-146.44;100.00;58906.56;5075263;27;45618;-67
2022/07/17 08:31:28;;;;;;;;;5.00;5.00;;;;;-146.44;100.00;58906.56;5075181;27;45359;-67
2022/07/17 08:33:54;;;;;;;;;4.00;4.00;;;;;-146.44;100.00;58906.56;5075516;27;45471;-68
2022/07/17 08:36:19;;;;;;;;;3.75;3.75;;;;;-146.44;100.00;58906.56;5075457;27;45591;-67
2022/07/17 08:38:44;;;;;;;;;5.75;3.25;;;;;-146.44;100.00;58906.56;5075086;27;46617;-68
2022/07/17 08:41:10;;;;;;;;;3.00;3.00;;;;;-146.44;100.00;58906.56;5075140;27;45537;-67
2022/07/17 08:43:36;;;;;;;;;4.00;4.00;;;;;-146.44;100.00;58906.56;5075394;27;45429;-67
2022/07/17 08:46:01;;;;;;;;;3.50;2.25;;;;;-146.44;100.00;58906.56;5075341;27;45389;-67
2022/07/17 08:48:28;;;;;;;;;4.00;4.00;;;;;-146.44;100.00;58906.56;5075096;27;46207;-67
2022/07/17 08:50:55;;;;;;;;;5.00;4.00;;;;;-146.44;100.00;58906.56;5074959;27;45350;-68
2022/07/17 08:53:21;;;;;;;;;3.25;3.25;;;;;-146.44;100.00;58906.56;5075268;27;45458;-68
2022/07/17 08:55:46;;;;;;;;;4.00;4.00;;;;;-146.44;100.00;58906.56;5075220;27;45430;-68
2022/07/17 08:58:18;;;;;;;;;5.00;5.00;;;;;-146.44;100.00;58906.56;5073679;28;46004;-67
2022/07/17 09:00:44;;;;;;;;;3.75;3.75;;;;;-146.44;100.00;58906.56;5074757;27;45457;-68
2022/07/17 09:03:10;;;;;;;;;5.50;4.25;;;;;-146.44;100.00;58906.56;5075087;27;45362;-68
2022/07/17 09:05:40;;;;;;;;;4.50;4.50;;;;;-146.44;100.00;58906.56;5075227;27;45465;-67
2022/07/17 09:08:09;;;;;;;;;3.00;3.00;;;;;-146.44;100.00;58906.56;5074613;28;45424;-67
2022/07/17 09:10:41;;;;;;;;;4.75;3.00;;;;;-146.44;100.00;58906.56;5074675;27;45536;-67
2022/07/17 09:13:15;;;;;;;;;4.25;3.00;;;;;-146.44;100.00;58906.56;5075046;27;45538;-67
2022/07/17 09:15:40;;;;;;;;;4.00;3.00;;;;;-146.44;100.00;58906.56;5074623;27;45578;-67
2022/07/17 09:18:06;;;;;;;;;3.75;3.75;;;;;-146.44;100.00;58906.56;5074586;27;45740;-67
2022/07/17 09:20:31;;;;;;;;;5.25;3.75;;;;;-146.44;100.00;58906.56;5075831;27;45462;-67
2022/07/17 09:23:04;;;;;;;;;5.00;4.00;;;;;-146.44;100.00;58906.56;5078386;27;45791;-67
2022/07/17 09:25:34;;;;;;;;;6.75;5.00;;;;;-146.44;100.00;58906.56;5078222;27;45515;-67
2022/07/17 09:28:02;;;;;;;;;4.00;4.00;;;;;-146.44;100.00;58906.56;5077890;27;45409;-67
2022/07/17 09:30:27;;;;;;;;;2.80;2.80;;;;;-146.44;100.00;58906.56;5077979;27;45488;-67
2022/07/17 09:32:55;;;;;;;;;3.00;3.00;;;;;-146.44;100.00;58906.56;5077946;27;45464;-67
2022/07/17 09:35:22;;;;;;;;;4.00;4.00;;;;;-146.44;100.00;58906.56;5077823;27;45398;-67
2022/07/17 09:37:47;;;;;;;;;3.25;3.25;;;;;-146.44;100.00;58906.56;5077801;27;46149;-67
2022/07/17 09:42:58;;;;;;;;;4.25;4.25;;;;;-146.44;100.00;58906.56;5077988;28;45425;-67
2022/07/17 09:45:23;;;;;;;;;4.00;4.00;;;;;-146.44;100.00;58906.56;5077793;27;45371;-67
2022/07/17 09:47:48;;;;;;;;;5.00;3.50;;;;;-146.44;100.00;58906.56;5077870;27;45354;-67
2022/07/17 09:50:16;;;;;;;;;3.00;3.00;;;;;-146.44;100.00;58906.56;5077667;27;45366;-67
2022/07/17 09:52:42;;;;;;;;;3.00;3.00;;;;;-146.44;100.00;58906.56;5077831;27;45441;-67
2022/07/17 09:55:08;;;;;;;;;3.25;3.25;;;;;-146.44;100.00;58906.56;5077984;27;45425;-67
2022/07/17 09:57:34;;;;;;;;;3.00;3.00;;;;;-146.44;100.00;58906.56;5077654;27;46112;-67
2022/07/17 10:00:11;;;;;;;;;2.40;2.40;;;;;-146.44;100.00;58906.56;5077790;27;45583;-66
2022/07/17 10:02:39;;;;;;;;;5.25;4.25;;;;;-146.44;100.00;58906.56;5077619;27;45456;-67
2022/07/17 10:05:06;;;;;;;;;4.50;4.50;;;;;-146.44;100.00;58906.56;5077887;27;45360;-67
2022/07/17 10:07:32;;;;;;;;;4.00;4.00;;;;;-146.44;100.00;58906.56;5077281;28;45414;-67
2022/07/17 10:09:58;;;;;;;;;4.75;4.75;;;;;-146.44;100.00;58906.56;5077367;28;45419;-67
2022/07/17 10:12:23;;;;;;;;;3.00;3.00;;;;;-146.44;100.00;58906.56;5077553;28;45414;-67
2022/07/17 10:14:50;;;;;;;;;4.25;3.50;;;;;-146.44;100.00;58906.56;5077265;27;45384;-67
2022/07/17 10:17:20;;;;;;;;;4.00;3.75;;;;;-146.44;100.00;58906.56;5077211;27;46172;-67
2022/07/17 10:19:56;;;;;;;;;3.00;3.00;;;;;-146.44;100.00;58906.56;5077489;27;45476;-67
2022/07/17 10:22:23;;;;;;;;;4.00;4.00;;;;;-146.44;100.00;58906.56;5077593;28;45494;-67
2022/07/17 10:24:54;;;;;;;;;3.00;3.00;;;;;-146.44;100.00;58906.56;5077278;28;45552;-66
2022/07/17 10:27:25;;;;;;;;;3.00;3.00;;;;;-146.44;100.00;58906.56;5077176;27;45505;-67
2022/07/17 10:30:10;;;;;;;;;3.60;3.60;;;;;-146.44;100.00;58906.56;5077290;27;45457;-67
2022/07/17 10:32:37;;;;;;;;;3.75;3.75;;;;;-146.44;100.00;58906.56;5077099;27;45385;-67
2022/07/17 10:35:08;;;;;;;;;3.00;3.00;;;;;-146.44;100.00;58906.56;5077329;27;45361;-67
2022/07/17 10:37:36;;;;;;;;;6.00;5.00;;;;;-146.44;100.00;58906.56;5077046;27;45448;-67
2022/07/17 10:40:21;;;;;;;;;3.00;3.00;;;;;-146.44;100.00;58906.56;5076732;28;45455;-67
2022/07/17 10:43:04;;;;;;;;;4.50;3.00;;;;;-146.44;100.00;58906.56;5077154;27;45462;-67
2022/07/17 10:45:35;;;;;;;;;2.00;2.00;;;;;-146.44;100.00;58906.56;5076993;27;45516;-67
2022/07/17 10:48:20;;;;;;;;;5.00;5.00;;;;;-146.44;100.00;58906.56;5076921;27;46079;-67
2022/07/17 10:50:49;;;;;;;;;7.25;6.25;;;;;-146.44;100.00;58906.56;5076860;27;45590;-67
2022/07/17 10:53:26;;;;;;;;;4.00;4.00;;;;;-146.44;100.00;58906.56;5077099;27;45430;-67
2022/07/17 10:55:57;;;;;;;;;4.00;4.00;;;;;-146.44;100.00;58906.56;5077073;27;45433;-67
2022/07/17 10:58:24;;;;;;;;;4.25;4.25;;;;;-146.44;100.00;58906.56;5076567;27;45431;-67
2022/07/17 11:01:12;;;;;;;;;9.00;7.00;;;;;-146.44;100.00;58906.56;5076699;27;45421;-68
2022/07/17 11:03:51;;;;;;;;;7.25;7.25;;;;;-146.44;100.00;58906.56;5075443;28;45474;-67
2022/07/17 11:06:27;;;;;;;;;10.00;8.25;;;;;-146.44;100.00;58906.56;5076928;27;45406;-68
2022/07/17 11:08:56;;;;;;;;;22.33;22.00;;;;;-146.44;100.00;58906.56;5076353;27;46005;-67